Time;durP1;ratioP1;P1;durP2;ratioP2;P2;SDS_P1;SDS_P2;PMS_P1;PMS_P2;Temp;Humidity;BMP_temperature;BMP_pressure;BME280_temperature;BME280_humidity;BME280_pressure;Samples;Min_cycle;Max_cycle;Signal;HPM_P1;HPM_P2
2023/07/09 00:01:24;;;;;;;4.57;3.70;;;27.60;49.80;;;;;;5038946;28;20025;-63
2023/07/09 00:03:51;;;;;;;5.63;3.88;;;27.60;49.90;;;;;;5042084;28;20025;-61
2023/07/09 00:06:18;;;;;;;4.65;3.72;;;27.60;49.90;;;;;;5038312;28;20105;-61
2023/07/09 00:08:48;;;;;;;5.07;4.20;;;27.60;49.90;;;;;;5034951;28;20128;-61
2023/07/09 00:11:15;;;;;;;5.45;4.00;;;27.50;49.90;;;;;;5039628;28;20029;-65
2023/07/09 00:13:41;;;;;;;4.38;3.72;;;27.50;49.90;;;;;;5042988;28;20418;-61
2023/07/09 00:16:14;;;;;;;5.32;4.30;;;27.50;49.90;;;;;;5041047;28;20112;-60
2023/07/09 00:18:40;;;;;;;6.20;3.90;;;27.60;50.10;;;;;;5038595;28;20156;-62
2023/07/09 00:21:06;;;;;;;5.72;3.95;;;27.60;50.10;;;;;;5022107;28;20888;-61
2023/07/09 00:23:33;;;;;;;4.90;4.10;;;27.50;50.00;;;;;;5042163;28;20024;-62
2023/07/09 00:25:59;;;;;;;5.50;3.83;;;27.60;50.10;;;;;;5039405;28;20045;-62
2023/07/09 00:28:25;;;;;;;5.47;4.60;;;27.60;50.10;;;;;;5032508;28;20107;-61
2023/07/09 00:30:51;;;;;;;5.10;4.30;;;27.60;50.10;;;;;;5043368;28;20039;-59
2023/07/09 00:33:20;;;;;;;4.97;3.88;;;27.50;50.00;;;;;;5018918;28;20097;-59
2023/07/09 00:35:48;;;;;;;5.90;4.10;;;27.50;49.90;;;;;;5020625;28;20459;-58
2023/07/09 00:38:21;;;;;;;5.78;4.32;;;27.50;49.90;;;;;;5036432;28;20335;-61
2023/07/09 00:41:05;;;;;;;4.63;3.97;;;27.50;49.80;;;;;;5024735;28;20094;-61
2023/07/09 00:43:37;;;;;;;5.60;4.10;;;27.50;49.80;;;;;;5042118;28;20344;-61
2023/07/09 00:46:23;;;;;;;5.25;4.00;;;27.50;49.80;;;;;;5019377;28;20437;-61
2023/07/09 00:48:58;;;;;;;5.45;3.97;;;27.50;49.80;;;;;;5016717;28;20369;-61
2023/07/09 00:51:25;;;;;;;4.57;3.33;;;27.50;49.70;;;;;;5018146;28;20018;-59
2023/07/09 00:54:00;;;;;;;5.32;3.53;;;27.50;49.70;;;;;;5041155;28;20021;-63
2023/07/09 00:56:42;;;;;;;4.80;3.78;;;27.50;49.70;;;;;;5022240;28;20475;-62
2023/07/09 00:59:14;;;;;;;5.20;3.80;;;27.50;49.70;;;;;;5017501;28;20115;-64
2023/07/09 01:01:40;;;;;;;4.95;3.67;;;27.50;49.70;;;;;;5017895;28;20045;-62
2023/07/09 01:04:10;;;;;;;4.50;3.60;;;27.50;49.80;;;;;;5044890;28;20052;-60
2023/07/09 01:06:44;;;;;;;4.53;3.70;;;27.50;49.90;;;;;;5040371;28;20025;-62
2023/07/09 01:09:11;;;;;;;4.60;3.70;;;27.50;50.10;;;;;;5034360;28;20025;-63
2023/07/09 01:11:38;;;;;;;5.05;3.55;;;27.50;50.10;;;;;;5019044;28;20036;-61
2023/07/09 01:14:07;;;;;;;4.07;3.28;;;27.50;50.10;;;;;;5017891;28;20112;-61
2023/07/09 01:16:39;;;;;;;4.38;3.45;;;27.50;50.10;;;;;;5002221;28;20267;-67
2023/07/09 01:19:06;;;;;;;4.45;3.85;;;27.50;50.10;;;;;;5018682;28;20421;-60
2023/07/09 01:21:33;;;;;;;5.53;4.35;;;27.50;50.10;;;;;;5040727;28;20033;-62
2023/07/09 01:24:19;;;;;;;3.90;3.50;;;27.50;50.10;;;;;;5015481;28;20433;-60
2023/07/09 01:26:46;;;;;;;4.25;3.78;;;27.50;50.30;;;;;;5022409;28;20110;-59
2023/07/09 01:29:12;;;;;;;5.28;4.00;;;27.50;50.30;;;;;;5021990;28;20112;-61
2023/07/09 01:31:38;;;;;;;5.13;3.72;;;27.50;50.30;;;;;;5025339;28;20417;-63
2023/07/09 01:34:05;;;;;;;4.65;3.72;;;27.50;50.40;;;;;;5038140;28;20033;-62
2023/07/09 01:36:31;;;;;;;5.88;3.78;;;27.50;50.50;;;;;;5037217;28;20027;-60
2023/07/09 01:38:57;;;;;;;4.63;3.85;;;27.40;50.50;;;;;;5034680;28;20382;-62
2023/07/09 01:41:23;;;;;;;5.57;3.67;;;27.50;50.60;;;;;;5031113;28;20034;-61
2023/07/09 01:43:50;;;;;;;4.80;3.80;;;27.50;50.80;;;;;;5019608;28;20099;-62
2023/07/09 01:46:16;;;;;;;5.60;4.10;;;27.50;50.80;;;;;;5017493;28;20037;-64
2023/07/09 01:48:42;;;;;;;6.90;4.32;;;27.40;50.80;;;;;;5040829;28;20413;-63
2023/07/09 01:51:18;;;;;;;4.50;3.63;;;27.50;51.00;;;;;;5019329;28;20112;-61
2023/07/09 01:53:45;;;;;;;4.25;3.75;;;27.40;50.90;;;;;;5016008;28;20040;-64
2023/07/09 01:56:11;;;;;;;5.38;4.30;;;27.40;51.00;;;;;;5018540;28;20029;-61
2023/07/09 01:58:41;;;;;;;5.85;4.38;;;27.40;51.10;;;;;;5025347;28;20127;-60
2023/07/09 02:01:09;;;;;;;5.70;4.22;;;27.40;51.10;;;;;;5019025;28;20052;-62
2023/07/09 02:03:35;;;;;;;5.03;3.90;;;27.40;51.10;;;;;;5038108;28;20442;-65
2023/07/09 02:06:08;;;;;;;4.78;3.97;;;27.40;51.20;;;;;;5022547;28;20445;-62
2023/07/09 02:08:35;;;;;;;4.75;4.00;;;27.40;51.20;;;;;;5036523;28;20041;-62
2023/07/09 02:11:02;;;;;;;5.47;4.10;;;27.40;51.30;;;;;;5020457;28;20033;-64
2023/07/09 02:13:27;;;;;;;5.53;4.22;;;27.40;51.30;;;;;;5018589;28;20045;-63
2023/07/09 02:15:54;;;;;;;4.40;3.75;;;27.40;51.30;;;;;;5021310;28;20056;-64
2023/07/09 02:18:20;;;;;;;5.57;4.10;;;27.40;51.30;;;;;;5022463;28;20061;-60
2023/07/09 02:20:46;;;;;;;4.43;3.53;;;27.40;51.30;;;;;;5021434;28;20503;-66
2023/07/09 02:23:12;;;;;;;4.43;3.67;;;27.40;51.20;;;;;;5023924;28;20021;-64
2023/07/09 02:25:38;;;;;;;4.60;3.88;;;27.30;51.20;;;;;;5006520;28;20043;-61
2023/07/09 02:28:04;;;;;;;4.30;3.75;;;27.40;51.20;;;;;;5027069;28;20421;-66
2023/07/09 02:30:30;;;;;;;4.68;3.75;;;27.30;51.20;;;;;;5023185;28;20048;-64
2023/07/09 02:32:56;;;;;;;5.60;4.00;;;27.30;51.20;;;;;;5028152;28;20047;-63
2023/07/09 02:35:23;;;;;;;4.97;3.83;;;27.30;51.20;;;;;;5026183;28;20077;-62
2023/07/09 02:37:49;;;;;;;5.82;4.20;;;27.30;51.20;;;;;;5024994;28;20054;-62
2023/07/09 02:40:16;;;;;;;4.75;4.05;;;27.30;51.20;;;;;;5019606;28;20063;-61
2023/07/09 02:42:42;;;;;;;4.72;3.85;;;27.30;51.20;;;;;;5026242;28;20066;-65
2023/07/09 02:45:09;;;;;;;5.95;4.32;;;27.30;51.30;;;;;;5041833;28;20415;-64
2023/07/09 02:47:35;;;;;;;6.60;4.05;;;27.30;51.30;;;;;;5023715;28;20103;-61
2023/07/09 02:50:02;;;;;;;5.47;3.90;;;27.30;51.30;;;;;;5026398;28;20025;-63
2023/07/09 02:52:29;;;;;;;4.97;3.83;;;27.30;51.20;;;;;;5022741;28;20029;-62
2023/07/09 02:54:55;;;;;;;4.65;3.60;;;27.30;51.20;;;;;;5043668;28;20423;-59
2023/07/09 02:57:21;;;;;;;6.03;4.03;;;27.30;51.20;;;;;;5047171;28;20021;-63
2023/07/09 02:59:47;;;;;;;5.95;4.00;;;27.30;51.20;;;;;;5024499;28;20033;-64
2023/07/09 03:02:13;;;;;;;4.68;3.78;;;27.30;51.30;;;;;;5026696;28;20017;-59
2023/07/09 03:04:39;;;;;;;5.57;3.67;;;27.30;51.30;;;;;;5022740;28;20029;-64
2023/07/09 03:07:05;;;;;;;5.07;3.83;;;27.30;51.30;;;;;;5043194;28;20094;-66
2023/07/09 03:09:31;;;;;;;4.15;3.60;;;27.30;51.40;;;;;;5024000;28;20036;-63
2023/07/09 03:11:57;;;;;;;4.65;3.78;;;27.30;51.40;;;;;;5045247;28;20021;-65
2023/07/09 03:14:23;;;;;;;4.22;3.42;;;27.30;51.50;;;;;;5026733;28;20021;-62
2023/07/09 03:16:49;;;;;;;5.15;3.63;;;27.30;51.50;;;;;;5041956;28;20025;-60
2023/07/09 03:19:15;;;;;;;4.85;3.97;;;27.30;51.60;;;;;;5008553;28;20053;-62
2023/07/09 03:21:41;;;;;;;4.75;3.67;;;27.20;51.60;;;;;;5025977;28;20025;-62
2023/07/09 03:24:08;;;;;;;4.72;3.80;;;27.30;51.70;;;;;;5023644;28;20531;-61
2023/07/09 03:26:34;;;;;;;6.10;3.83;;;27.30;51.70;;;;;;5044442;28;20162;-61
2023/07/09 03:29:00;;;;;;;5.97;4.28;;;27.20;51.70;;;;;;5010210;28;20042;-67
2023/07/09 03:31:26;;;;;;;4.63;4.07;;;27.20;51.70;;;;;;5041218;28;20029;-60
2023/07/09 03:33:53;;;;;;;5.82;4.22;;;27.20;51.70;;;;;;5045441;28;20036;-62
2023/07/09 03:36:20;;;;;;;5.82;4.35;;;27.20;51.70;;;;;;5045208;28;20443;-60
2023/07/09 03:38:46;;;;;;;4.55;4.05;;;27.20;51.80;;;;;;5043524;28;20032;-62
2023/07/09 03:41:12;;;;;;;5.18;3.80;;;27.20;51.80;;;;;;5044787;28;20460;-60
2023/07/09 03:43:38;;;;;;;5.13;4.25;;;27.20;51.80;;;;;;5042705;28;20040;-65
2023/07/09 03:46:04;;;;;;;4.32;3.50;;;27.20;51.90;;;;;;5041738;28;20041;-62
2023/07/09 03:48:30;;;;;;;5.07;4.13;;;27.20;51.90;;;;;;5046449;28;20061;-62
2023/07/09 03:50:56;;;;;;;4.80;4.10;;;27.20;51.90;;;;;;5025753;28;20029;-65
2023/07/09 03:53:22;;;;;;;4.97;3.92;;;27.20;51.90;;;;;;5040222;28;20040;-62
2023/07/09 03:55:53;;;;;;;5.82;4.68;;;27.20;52.00;;;;;;5044988;28;20043;-62
2023/07/09 03:58:19;;;;;;;5.68;4.50;;;27.20;52.00;;;;;;5043394;28;20043;-64
2023/07/09 04:00:45;;;;;;;5.60;4.55;;;27.20;52.00;;;;;;5042215;28;21264;-61
2023/07/09 04:03:11;;;;;;;5.28;4.45;;;27.20;52.10;;;;;;5044535;28;20036;-62
2023/07/09 04:05:37;;;;;;;6.68;4.40;;;27.20;52.10;;;;;;5044131;28;20043;-59
2023/07/09 04:08:04;;;;;;;5.68;4.22;;;27.20;52.00;;;;;;5038852;28;20032;-61
2023/07/09 04:10:30;;;;;;;4.93;4.28;;;27.20;52.00;;;;;;5043065;28;20404;-62
2023/07/09 04:12:56;;;;;;;4.90;4.20;;;27.20;52.10;;;;;;5045365;28;20175;-61
2023/07/09 04:15:22;;;;;;;5.72;4.32;;;27.20;52.00;;;;;;5042835;28;20175;-63
2023/07/09 04:17:48;;;;;;;5.03;4.03;;;27.20;52.10;;;;;;5020781;28;20171;-61
2023/07/09 04:20:14;;;;;;;6.03;4.35;;;27.20;52.10;;;;;;5045768;28;20112;-60
2023/07/09 04:22:40;;;;;;;5.30;4.32;;;27.20;52.10;;;;;;5044773;28;20028;-63
2023/07/09 04:25:09;;;;;;;5.28;4.32;;;27.20;52.20;;;;;;5040386;28;20197;-65
2023/07/09 04:27:36;;;;;;;5.55;4.55;;;27.20;52.20;;;;;;5040507;28;20041;-64
2023/07/09 04:30:04;;;;;;;6.25;4.07;;;27.20;52.30;;;;;;5044011;28;20063;-62
2023/07/09 04:32:31;;;;;;;5.18;4.32;;;27.20;52.30;;;;;;5043301;28;20060;-60
2023/07/09 04:34:57;;;;;;;5.70;4.40;;;27.20;52.40;;;;;;5041711;28;20040;-62
2023/07/09 04:37:23;;;;;;;4.97;4.10;;;27.20;52.40;;;;;;5042958;28;20041;-63
2023/07/09 04:39:49;;;;;;;4.95;4.35;;;27.20;52.50;;;;;;5043277;28;20094;-61
2023/07/09 04:42:17;;;;;;;6.28;4.53;;;27.20;52.50;;;;;;5040418;28;20029;-64
2023/07/09 04:44:45;;;;;;;5.65;4.38;;;27.20;52.60;;;;;;5043089;28;20048;-61
2023/07/09 04:47:12;;;;;;;7.00;4.78;;;27.20;52.60;;;;;;5038763;28;20413;-62
2023/07/09 04:49:38;;;;;;;6.35;5.10;;;27.20;52.70;;;;;;5043203;28;20020;-60
2023/07/09 04:52:04;;;;;;;6.07;5.10;;;27.20;52.70;;;;;;5042656;28;20496;-62
2023/07/09 04:54:30;;;;;;;6.32;4.88;;;27.20;52.70;;;;;;5039233;28;20036;-63
2023/07/09 04:56:58;;;;;;;5.88;4.90;;;27.20;52.70;;;;;;5043330;28;20119;-62
2023/07/09 04:59:24;;;;;;;6.35;4.80;;;27.20;52.80;;;;;;5044798;28;20024;-60
2023/07/09 05:01:51;;;;;;;6.55;5.07;;;27.20;52.80;;;;;;5042603;28;20033;-61
2023/07/09 05:04:17;;;;;;;5.88;4.88;;;27.20;52.80;;;;;;5040764;28;20415;-61
2023/07/09 05:06:43;;;;;;;8.43;5.10;;;27.10;53.40;;;;;;5022731;28;20191;-64
2023/07/09 05:09:08;;;;;;;5.60;4.70;;;27.20;52.90;;;;;;5042329;28;20316;-61
2023/07/09 05:11:36;;;;;;;6.78;4.47;;;27.20;53.00;;;;;;5044375;28;20060;-65
2023/07/09 05:14:03;;;;;;;8.43;4.70;;;27.20;53.00;;;;;;5021977;28;20082;-62
2023/07/09 05:16:29;;;;;;;9.90;5.45;;;27.20;53.10;;;;;;5038225;28;20160;-63
2023/07/09 05:18:55;;;;;;;6.13;5.28;;;27.20;53.10;;;;;;5037631;28;20033;-63
2023/07/09 05:21:21;;;;;;;7.43;4.93;;;27.20;53.10;;;;;;5044605;28;20377;-61
2023/07/09 05:23:47;;;;;;;7.05;5.38;;;27.20;53.20;;;;;;5041637;28;20036;-61
2023/07/09 05:26:13;;;;;;;5.90;5.10;;;27.20;53.20;;;;;;5025126;28;20123;-61
2023/07/09 05:28:39;;;;;;;6.25;5.15;;;27.20;53.20;;;;;;5036022;28;20068;-63
2023/07/09 05:31:05;;;;;;;5.35;4.32;;;27.20;53.30;;;;;;5043352;28;20025;-62
2023/07/09 05:33:31;;;;;;;6.85;4.93;;;27.20;53.40;;;;;;5038649;28;20052;-61
2023/07/09 05:35:57;;;;;;;5.45;4.72;;;27.20;53.40;;;;;;5042991;28;20025;-61
2023/07/09 05:38:23;;;;;;;6.35;4.55;;;27.20;53.40;;;;;;5043137;28;20082;-62
2023/07/09 05:41:02;;;;;;;6.82;5.15;;;27.20;53.50;;;;;;5040991;28;20029;-61
2023/07/09 05:43:28;;;;;;;6.18;4.88;;;27.10;53.50;;;;;;5041451;28;20029;-62
2023/07/09 05:45:54;;;;;;;6.57;5.22;;;27.20;53.60;;;;;;5040445;28;20045;-62
2023/07/09 05:48:20;;;;;;;6.95;5.25;;;27.10;53.50;;;;;;5042330;28;20033;-61
2023/07/09 05:50:49;;;;;;;6.45;4.85;;;27.10;53.50;;;;;;5039011;28;20309;-61
2023/07/09 05:53:14;;;;;;;6.75;5.45;;;27.10;53.60;;;;;;5042551;28;20059;-60
2023/07/09 05:55:41;;;;;;;5.90;5.28;;;27.20;53.60;;;;;;5045406;28;20168;-60
2023/07/09 05:58:07;;;;;;;6.20;4.78;;;27.10;53.60;;;;;;5045389;28;20089;-61
2023/07/09 06:00:33;;;;;;;8.20;5.70;;;27.10;53.60;;;;;;5023700;28;20028;-63
2023/07/09 06:02:58;;;;;;;7.68;5.10;;;27.20;53.60;;;;;;5048319;28;20360;-63
2023/07/09 06:05:24;;;;;;;8.20;5.30;;;27.10;53.60;;;;;;5042080;28;20026;-60
2023/07/09 06:07:50;;;;;;;7.05;5.40;;;27.10;53.60;;;;;;5042211;28;20128;-63
2023/07/09 06:10:16;;;;;;;5.25;4.70;;;27.10;53.50;;;;;;5045471;28;20128;-62
2023/07/09 06:12:42;;;;;;;6.85;5.40;;;27.10;53.60;;;;;;5047669;28;20025;-62
2023/07/09 06:15:09;;;;;;;6.95;5.43;;;27.10;53.60;;;;;;5042509;28;20044;-61
2023/07/09 06:17:35;;;;;;;6.40;4.82;;;27.20;53.60;;;;;;5041938;28;20021;-63
2023/07/09 06:20:01;;;;;;;6.53;5.38;;;27.20;53.60;;;;;;5019444;28;20096;-63
2023/07/09 06:22:27;;;;;;;7.22;5.57;;;27.20;53.60;;;;;;5043308;28;20131;-64
2023/07/09 06:24:54;;;;;;;7.47;5.30;;;27.20;53.60;;;;;;5044989;28;20029;-61
2023/07/09 06:27:20;;;;;;;6.47;5.63;;;27.10;53.50;;;;;;5046702;28;20041;-62
2023/07/09 06:29:46;;;;;;;8.52;6.00;;;27.20;54.20;;;;;;5042811;28;20108;-60
2023/07/09 06:32:12;;;;;;;6.50;5.15;;;27.20;53.60;;;;;;5039083;28;20052;-63
2023/07/09 06:34:38;;;;;;;7.15;5.53;;;27.10;53.60;;;;;;5046065;28;20087;-64
2023/07/09 06:37:04;;;;;;;7.63;5.72;;;27.20;53.70;;;;;;5042932;28;20460;-61
2023/07/09 06:39:31;;;;;;;7.30;5.47;;;27.20;53.70;;;;;;5042657;28;20186;-64
2023/07/09 06:41:56;;;;;;;6.32;5.47;;;27.20;53.70;;;;;;5044770;28;20112;-62
2023/07/09 06:44:42;;;;;;;7.78;5.43;;;27.20;53.60;;;;;;5028123;28;20109;-64
2023/07/09 06:47:07;;;;;;;10.27;6.38;;;27.20;53.70;;;;;;5044086;28;20409;-64
2023/07/09 06:49:33;;;;;;;9.70;6.03;;;27.20;53.70;;;;;;5038347;28;20134;-62
2023/07/09 06:52:00;;;;;;;7.82;5.50;;;27.20;53.60;;;;;;5043366;28;20022;-62
2023/07/09 06:54:26;;;;;;;9.20;6.13;;;27.20;53.60;;;;;;5041793;28;20365;-63
2023/07/09 06:56:52;;;;;;;7.45;6.00;;;27.20;53.60;;;;;;5043801;28;20029;-65
2023/07/09 06:59:18;;;;;;;9.18;5.82;;;27.20;53.60;;;;;;5039511;28;20155;-59
2023/07/09 07:01:44;;;;;;;9.90;5.90;;;27.20;53.60;;;;;;5041878;28;20318;-61
2023/07/09 07:04:10;;;;;;;7.40;6.00;;;27.20;53.60;;;;;;5042909;28;20105;-58
2023/07/09 07:06:36;;;;;;;8.20;5.68;;;27.20;53.50;;;;;;5042911;28;20062;-63
2023/07/09 07:09:02;;;;;;;8.68;6.30;;;27.20;53.50;;;;;;5044557;28;20051;-62
2023/07/09 07:11:30;;;;;;;7.03;5.43;;;27.20;53.50;;;;;;5016271;28;20219;-62
2023/07/09 07:13:55;;;;;;;6.45;5.07;;;27.30;53.60;;;;;;5036607;28;20025;-61
2023/07/09 07:16:22;;;;;;;8.25;5.93;;;27.30;53.60;;;;;;5041337;28;20051;-61
2023/07/09 07:18:48;;;;;;;6.97;5.63;;;27.30;53.50;;;;;;5041130;28;20462;-62
2023/07/09 07:21:14;;;;;;;6.43;5.20;;;27.30;53.50;;;;;;5040089;28;20383;-61
2023/07/09 07:23:40;;;;;;;6.70;5.18;;;27.30;53.50;;;;;;5040433;28;20357;-66
2023/07/09 07:26:06;;;;;;;6.57;5.43;;;27.30;53.50;;;;;;5040045;28;20039;-67
2023/07/09 07:28:35;;;;;;;7.53;5.47;;;27.40;53.60;;;;;;5036592;28;20037;-62
2023/07/09 07:31:10;;;;;;;5.65;4.65;;;27.30;53.50;;;;;;5036826;28;20087;-65
2023/07/09 07:33:39;;;;;;;6.25;5.10;;;27.40;53.60;;;;;;5040974;28;20029;-62
2023/07/09 07:36:05;;;;;;;7.07;5.28;;;27.40;53.60;;;;;;5041493;28;20037;-64
2023/07/09 07:38:31;;;;;;;7.05;5.22;;;27.40;53.60;;;;;;5040722;28;20029;-62
2023/07/09 07:40:57;;;;;;;6.55;4.65;;;27.40;53.60;;;;;;5035517;28;20037;-61
2023/07/09 07:43:23;;;;;;;5.75;4.60;;;27.40;53.60;;;;;;5020976;28;20029;-63
2023/07/09 07:45:49;;;;;;;5.20;4.43;;;27.40;53.60;;;;;;5017954;28;20044;-65
2023/07/09 07:48:15;;;;;;;6.57;5.07;;;27.40;53.60;;;;;;5043986;28;20083;-62
2023/07/09 07:50:41;;;;;;;6.60;4.82;;;27.40;53.60;;;;;;5043303;28;20084;-63
2023/07/09 07:53:08;;;;;;;5.68;4.70;;;27.40;53.60;;;;;;5033930;28;20073;-60
2023/07/09 07:55:36;;;;;;;6.85;5.03;;;27.50;53.70;;;;;;5020804;28;20067;-61
2023/07/09 07:58:03;;;;;;;6.65;4.93;;;27.50;53.70;;;;;;5044485;28;20053;-62
2023/07/09 08:00:30;;;;;;;6.68;4.97;;;27.50;53.70;;;;;;5037116;28;20040;-62
2023/07/09 08:02:56;;;;;;;5.07;4.47;;;27.50;53.70;;;;;;5012774;28;20049;-61
2023/07/09 08:05:23;;;;;;;5.53;4.38;;;27.50;53.70;;;;;;5040740;28;20231;-63
2023/07/09 08:07:49;;;;;;;7.05;4.75;;;27.50;53.70;;;;;;5040394;28;20105;-63
2023/07/09 08:10:16;;;;;;;5.53;4.43;;;27.50;53.70;;;;;;5037062;28;20029;-66
2023/07/09 08:12:42;;;;;;;5.63;4.60;;;27.50;53.80;;;;;;5035518;28;20025;-61
2023/07/09 08:15:08;;;;;;;7.53;4.85;;;27.50;53.80;;;;;;5032007;28;20017;-61
2023/07/09 08:17:34;;;;;;;7.30;4.57;;;27.50;53.80;;;;;;5042554;28;20069;-63
2023/07/09 08:20:00;;;;;;;5.00;4.50;;;27.50;53.80;;;;;;5022712;28;20407;-62
2023/07/09 08:22:26;;;;;;;6.47;5.20;;;27.50;53.70;;;;;;5036414;28;20029;-59
2023/07/09 08:24:52;;;;;;;7.07;5.55;;;27.50;53.80;;;;;;5036733;28;20045;-63
2023/07/09 08:27:19;;;;;;;6.95;5.80;;;27.50;53.80;;;;;;5042650;28;20329;-63
2023/07/09 08:29:45;;;;;;;7.45;5.85;;;27.50;53.80;;;;;;5037009;28;20104;-62
2023/07/09 08:32:12;;;;;;;7.82;5.82;;;27.50;53.90;;;;;;5038778;28;20382;-64
2023/07/09 08:34:40;;;;;;;7.55;5.78;;;27.60;54.00;;;;;;5044466;28;20134;-62
2023/07/09 08:37:08;;;;;;;5.60;4.45;;;27.60;54.00;;;;;;5036598;28;20033;-60
2023/07/09 08:39:34;;;;;;;6.10;4.85;;;27.60;53.90;;;;;;5039808;28;20022;-64
2023/07/09 08:42:03;;;;;;;5.85;4.38;;;27.60;53.70;;;;;;5038272;28;20033;-60
2023/07/09 08:44:44;;;;;;;6.68;5.80;;;27.60;53.60;;;;;;5040268;28;20480;-67
2023/07/09 08:47:25;;;;;;;15.25;9.15;;;27.70;54.10;;;;;;5035645;28;20041;-66
2023/07/09 08:49:55;;;;;;;23.73;13.57;;;27.60;55.20;;;;;;5036891;28;20352;-65
2023/07/09 08:52:35;;;;;;;23.75;13.30;;;27.50;56.60;;;;;;5037159;28;20372;-65
2023/07/09 08:55:12;;;;;;;24.10;13.35;;;27.40;57.00;;;;;;5041226;28;20073;-62
2023/07/09 08:57:50;;;;;;;30.75;14.93;;;27.40;58.30;;;;;;5036656;28;20487;-63
2023/07/09 09:00:34;;;;;;;26.60;14.80;;;27.40;59.90;;;;;;5046386;28;20379;-60
2023/07/09 09:03:23;;;;;;;25.02;13.07;;;27.30;59.70;;;;;;5035080;28;20462;-63
2023/07/09 09:05:49;;;;;;;23.83;12.57;;;27.20;58.80;;;;;;5032778;28;20128;-60
2023/07/09 09:08:54;;;;;;;20.98;12.50;;;27.10;58.60;;;;;;5038086;28;20029;-64
2023/07/09 09:11:43;;;;;;;24.42;13.50;;;27.10;58.90;;;;;;5036322;28;20104;-60
2023/07/09 09:14:30;;;;;;;22.92;12.55;;;26.90;59.30;;;;;;5032228;28;20044;-62
2023/07/09 09:16:56;;;;;;;40.92;18.85;;;26.70;58.30;;;;;;5034242;28;20044;-60
2023/07/09 09:19:37;;;;;;;43.53;18.92;;;26.60;58.90;;;;;;5036497;28;20073;-65
2023/07/09 09:22:13;;;;;;;43.47;19.55;;;26.50;60.20;;;;;;5040459;28;20079;-64
2023/07/09 09:24:58;;;;;;;36.88;18.23;;;26.30;61.60;;;;;;5039068;28;20143;-64
2023/07/09 09:27:24;;;;;;;36.05;18.33;;;26.20;61.30;;;;;;5038438;28;20041;-64
2023/07/09 09:29:50;;;;;;;38.50;18.77;;;26.10;61.50;;;;;;5038845;28;20074;-61
2023/07/09 09:32:28;;;;;;;36.65;21.50;;;26.00;61.60;;;;;;5039378;28;20210;-61
2023/07/09 09:34:55;;;;;;;43.67;22.88;;;25.90;61.50;;;;;;5041104;28;20053;-63
2023/07/09 09:37:30;;;;;;;45.45;26.08;;;25.80;61.90;;;;;;5047497;28;20113;-65
2023/07/09 09:39:56;;;;;;;39.42;21.55;;;25.80;62.20;;;;;;5044261;28;20032;-62
2023/07/09 09:42:25;;;;;;;38.22;20.23;;;25.70;61.80;;;;;;5038715;28;20029;-62
2023/07/09 09:44:54;;;;;;;40.75;20.10;;;25.70;62.10;;;;;;5010185;28;20364;-61
2023/07/09 09:47:20;;;;;;;38.58;18.15;;;25.60;64.30;;;;;;5039651;28;20053;-60
2023/07/09 09:49:46;;;;;;;23.85;12.55;;;25.60;65.20;;;;;;5036551;28;20328;-61
2023/07/09 09:52:15;;;;;;;19.95;10.70;;;25.70;63.70;;;;;;5036483;28;20021;-62
2023/07/09 09:54:49;;;;;;;16.85;10.50;;;25.80;62.50;;;;;;5044658;28;20052;-61
2023/07/09 09:57:23;;;;;;;;;;;25.80;62.40;;;;;;5040579;28;20052;-64
2023/07/09 09:59:50;;;;;;;18.80;10.45;;;25.80;61.70;;;;;;5036327;28;20328;-63
2023/07/09 10:02:24;;;;;;;16.50;10.30;;;25.80;60.80;;;;;;5038442;28;20100;-64
2023/07/09 10:04:53;;;;;;;16.20;9.27;;;25.80;60.20;;;;;;5037315;28;20068;-65
2023/07/09 10:07:32;;;;;;;14.02;8.77;;;25.80;59.80;;;;;;5040960;28;20029;-64
2023/07/09 10:09:58;;;;;;;15.23;8.88;;;25.70;59.30;;;;;;5039144;28;20654;-64
2023/07/09 10:12:32;;;;;;;13.57;8.45;;;25.60;58.90;;;;;;5037317;28;20048;-62
2023/07/09 10:15:01;;;;;;;;;;;25.60;58.50;;;;;;5038528;28;20093;-61
2023/07/09 10:17:42;;;;;;;10.70;6.75;;;25.50;58.40;;;;;;5036783;28;20537;-65
2023/07/09 10:20:24;;;;;;;9.57;6.75;;;25.60;58.60;;;;;;5040135;28;20610;-62
2023/07/09 10:23:08;;;;;;;10.25;6.53;;;25.70;58.40;;;;;;5044726;28;20042;-65
2023/07/09 10:25:57;;;;;;;8.23;5.55;;;25.80;58.10;;;;;;5040399;28;20077;-63
2023/07/09 10:28:31;;;;;;;7.47;5.80;;;26.00;57.90;;;;;;5021140;28;20045;-61
2023/07/09 10:31:20;;;;;;;7.70;5.43;;;26.10;57.70;;;;;;5040356;28;20047;-62
2023/07/09 10:34:14;;;;;;;5.80;4.40;;;26.20;57.50;;;;;;5041363;28;20151;-61
2023/07/09 10:37:02;;;;;;;7.43;5.00;;;26.40;57.80;;;;;;5038647;28;20057;-63
2023/07/09 10:39:34;;;;;;;5.90;4.22;;;26.50;56.90;;;;;;5044638;28;20314;-62
2023/07/09 10:42:02;;;;;;;7.10;4.60;;;26.60;56.80;;;;;;5039539;28;20044;-63
2023/07/09 10:44:40;;;;;;;6.72;4.63;;;26.60;56.50;;;;;;5038904;28;20121;-62
2023/07/09 10:47:31;;;;;;;5.55;4.65;;;26.70;56.30;;;;;;5041763;28;20041;-63
2023/07/09 10:49:59;;;;;;;5.90;3.90;;;26.80;56.10;;;;;;5045050;28;20210;-64
2023/07/09 10:52:28;;;;;;;5.88;4.03;;;26.90;56.00;;;;;;5047560;28;20036;-64
2023/07/09 10:55:02;;;;;;;5.05;3.95;;;26.90;55.80;;;;;;5043074;28;20040;-61
2023/07/09 10:57:33;;;;;;;5.10;4.07;;;27.00;55.70;;;;;;5039502;28;20382;-61
2023/07/09 10:59:59;;;;;;;5.90;4.10;;;27.00;55.40;;;;;;5044986;28;20191;-61
2023/07/09 11:02:32;;;;;;;5.80;3.67;;;27.10;55.30;;;;;;5039596;28;20033;-63
2023/07/09 11:05:04;;;;;;;4.70;3.45;;;27.10;55.00;;;;;;5046303;28;20029;-64
2023/07/09 11:07:48;;;;;;;6.25;3.90;;;27.20;54.80;;;;;;5041831;28;20061;-64
2023/07/09 11:10:23;;;;;;;3.92;3.13;;;27.20;54.60;;;;;;5040890;28;20025;-63
2023/07/09 11:13:10;;;;;;;4.45;3.50;;;27.20;54.40;;;;;;5045504;28;20037;-63
2023/07/09 11:15:41;;;;;;;4.45;3.15;;;27.20;54.20;;;;;;5040539;28;20433;-61
2023/07/09 11:18:16;;;;;;;4.55;3.08;;;27.20;54.00;;;;;;5039285;28;20096;-63
2023/07/09 11:20:45;;;;;;;3.70;3.15;;;27.30;54.00;;;;;;5044393;28;20147;-63
2023/07/09 11:23:26;;;;;;;4.60;3.42;;;27.30;53.80;;;;;;5023754;28;20036;-64
2023/07/09 11:26:21;;;;;;;4.53;3.20;;;27.30;53.70;;;;;;5040297;28;20376;-63
2023/07/09 11:29:11;;;;;;;3.50;3.20;;;27.30;53.60;;;;;;5044636;28;20106;-66
2023/07/09 11:31:48;;;;;;;4.68;3.00;;;27.40;53.60;;;;;;5041539;28;20029;-64
2023/07/09 11:34:14;;;;;;;4.63;3.55;;;27.40;53.60;;;;;;5044787;28;20081;-62
2023/07/09 11:37:00;;;;;;;4.88;3.45;;;27.40;53.50;;;;;;5023124;28;20048;-65
2023/07/09 11:39:39;;;;;;;4.65;3.50;;;27.50;53.50;;;;;;5040816;28;20418;-63
2023/07/09 11:42:24;;;;;;;4.70;3.38;;;27.50;53.60;;;;;;5045451;28;20080;-65
2023/07/09 11:44:56;;;;;;;5.20;3.70;;;27.50;53.50;;;;;;5042128;28;20053;-64
2023/07/09 11:47:30;;;;;;;4.57;3.63;;;27.50;53.50;;;;;;5044600;28;20059;-63
2023/07/09 11:50:02;;;;;;;4.72;3.63;;;27.50;53.60;;;;;;5042334;28;20050;-65
2023/07/09 11:52:41;;;;;;;4.93;3.55;;;27.60;53.60;;;;;;5040228;28;20083;-65
2023/07/09 11:55:31;;;;;;;4.28;3.30;;;27.60;53.50;;;;;;5013422;28;20037;-67
2023/07/09 11:58:00;;;;;;;5.00;3.53;;;27.60;53.40;;;;;;5046376;28;20134;-62
2023/07/09 12:00:30;;;;;;;5.28;3.67;;;27.60;53.40;;;;;;5046196;28;20033;-61
2023/07/09 12:02:56;;;;;;;4.75;3.50;;;27.60;53.30;;;;;;5020476;28;20029;-63
2023/07/09 12:05:27;;;;;;;4.88;3.50;;;27.60;53.20;;;;;;5039588;28;20056;-61
2023/07/09 12:07:53;;;;;;;3.92;3.17;;;27.70;53.20;;;;;;5038734;28;20048;-63
2023/07/09 12:10:31;;;;;;;4.22;3.28;;;27.60;53.10;;;;;;5040556;28;20124;-63
2023/07/09 12:12:59;;;;;;;4.38;3.17;;;27.70;53.10;;;;;;5037521;28;20025;-61
2023/07/09 12:15:29;;;;;;;4.88;3.60;;;27.70;53.10;;;;;;5037446;28;20041;-61
2023/07/09 12:18:02;;;;;;;4.07;3.30;;;27.70;53.00;;;;;;5038588;28;20074;-66
2023/07/09 12:20:34;;;;;;;3.60;3.00;;;27.70;52.90;;;;;;5040669;28;20123;-63
2023/07/09 12:23:09;;;;;;;4.15;3.00;;;27.70;52.90;;;;;;5041412;28;20029;-66
2023/07/09 12:25:35;;;;;;;4.47;3.00;;;27.80;52.90;;;;;;5033978;28;20099;-66
2023/07/09 12:28:01;;;;;;;3.53;3.13;;;27.80;52.90;;;;;;5040268;28;20069;-58
2023/07/09 12:30:31;;;;;;;5.95;3.80;;;27.80;52.80;;;;;;5041885;28;20040;-63
2023/07/09 12:32:57;;;;;;;3.78;2.80;;;27.80;52.80;;;;;;5035978;28;20445;-62
2023/07/09 12:35:23;;;;;;;4.20;3.20;;;27.80;52.70;;;;;;5037357;28;20119;-63
2023/07/09 12:37:52;;;;;;;3.80;3.22;;;27.80;52.60;;;;;;5031293;28;20044;-60
2023/07/09 12:40:27;;;;;;;3.35;3.03;;;27.90;52.60;;;;;;5038051;28;20077;-63
2023/07/09 12:42:55;;;;;;;4.28;3.28;;;27.90;52.50;;;;;;5038995;28;20104;-62
2023/07/09 12:45:21;;;;;;;3.42;3.05;;;27.90;52.40;;;;;;5037099;28;20375;-63
2023/07/09 12:47:49;;;;;;;3.53;3.05;;;27.90;52.40;;;;;;5041436;28;20059;-65
2023/07/09 12:50:31;;;;;;;3.53;2.80;;;27.90;52.40;;;;;;5048701;28;20331;-60
2023/07/09 12:53:02;;;;;;;4.97;3.22;;;27.90;52.30;;;;;;5048997;28;20059;-63
2023/07/09 12:55:41;;;;;;;3.50;3.00;;;27.90;52.30;;;;;;5034187;28;20132;-59
2023/07/09 12:58:18;;;;;;;3.95;3.17;;;27.90;52.30;;;;;;5039197;28;20080;-65